Time;durP1;ratioP1;P1;durP2;ratioP2;P2;SDS_P1;SDS_P2;PMS_P1;PMS_P2;Temp;Humidity;BMP_temperature;BMP_pressure;BME280_temperature;BME280_humidity;BME280_pressure;Samples;Min_cycle;Max_cycle;Signal;HPM_P1;HPM_P2
2023/07/31 00:01:21;;;;;;;2.85;1.00;;;19.70;71.30;;;;;;2592826;53;20928;-73
2023/07/31 00:03:47;;;;;;;2.95;1.20;;;19.60;71.30;;;;;;2345536;54;20988;-72
2023/07/31 00:06:14;;;;;;;3.40;0.90;;;19.60;71.20;;;;;;2592991;53;20972;-73
2023/07/31 00:08:40;;;;;;;1.75;0.80;;;19.60;71.30;;;;;;2589735;53;20984;-72
2023/07/31 00:11:07;;;;;;;5.18;0.88;;;19.60;71.30;;;;;;2591899;53;20900;-73
2023/07/31 00:13:33;;;;;;;1.73;0.73;;;19.60;71.40;;;;;;2591182;53;20960;-72
2023/07/31 00:16:00;;;;;;;2.17;0.75;;;19.60;71.30;;;;;;2345015;54;21770;-73
2023/07/31 00:18:28;;;;;;;2.08;0.80;;;19.50;71.20;;;;;;2590999;53;20976;-72
2023/07/31 00:20:54;;;;;;;3.65;1.10;;;19.60;71.20;;;;;;2592032;53;21075;-73
2023/07/31 00:23:21;;;;;;;1.60;0.80;;;19.50;71.10;;;;;;2345026;54;21683;-74
2023/07/31 00:25:47;;;;;;;2.45;1.10;;;19.50;71.20;;;;;;2591757;53;21028;-72
2023/07/31 00:28:13;;;;;;;2.12;0.70;;;19.50;71.20;;;;;;2350013;54;20957;-73
2023/07/31 00:30:40;;;;;;;3.42;0.93;;;19.50;72.00;;;;;;2589694;52;20911;-72
2023/07/31 00:33:07;;;;;;;3.10;1.00;;;19.50;71.40;;;;;;2592511;53;21472;-72
2023/07/31 00:35:37;;;;;;;2.90;1.20;;;19.40;71.20;;;;;;2590272;53;20995;-70
2023/07/31 00:38:05;;;;;;;2.55;1.00;;;19.40;71.30;;;;;;2345603;54;21464;-72
2023/07/31 00:40:37;;;;;;;3.20;1.10;;;19.40;71.40;;;;;;2589389;52;20960;-72
2023/07/31 00:43:05;;;;;;;4.20;0.90;;;19.40;71.20;;;;;;2346140;53;20961;-72
2023/07/31 00:45:31;;;;;;;3.00;1.15;;;19.40;71.50;;;;;;2590916;52;21020;-74
2023/07/31 00:47:58;;;;;;;3.25;1.00;;;19.40;71.40;;;;;;2345700;54;20924;-72
2023/07/31 00:50:25;;;;;;;2.53;0.90;;;19.40;71.40;;;;;;2591621;52;20973;-72
2023/07/31 00:52:52;;;;;;;2.62;1.05;;;19.40;71.40;;;;;;2345291;54;21008;-72
2023/07/31 00:55:21;;;;;;;3.95;0.90;;;19.40;71.40;;;;;;2592447;53;20944;-72
2023/07/31 00:57:48;;;;;;;3.12;0.98;;;19.40;71.50;;;;;;2593135;53;20925;-72
2023/07/31 01:00:18;;;;;;;2.95;1.00;;;19.30;71.40;;;;;;2591018;53;20949;-72
2023/07/31 01:02:49;;;;;;;2.12;0.90;;;19.30;71.40;;;;;;2345585;54;20984;-72
2023/07/31 01:05:15;;;;;;;4.03;1.00;;;19.30;71.20;;;;;;2345605;53;21138;-71
2023/07/31 01:07:58;;;;;;;2.60;0.90;;;19.30;71.40;;;;;;2592119;53;20981;-73
2023/07/31 01:10:26;;;;;;;3.00;1.02;;;19.30;70.90;;;;;;2591916;53;20927;-71
2023/07/31 01:12:53;;;;;;;5.47;0.80;;;19.30;71.30;;;;;;2591769;53;20940;-71
2023/07/31 01:15:20;;;;;;;1.92;0.80;;;19.30;71.40;;;;;;2592159;53;20964;-73
2023/07/31 01:17:46;;;;;;;2.58;1.05;;;19.30;71.50;;;;;;2345465;54;20988;-73
2023/07/31 01:20:26;;;;;;;2.42;0.90;;;19.30;71.60;;;;;;2590304;52;20891;-74
2023/07/31 01:27:07;;;;;;;2.60;0.80;;;19.30;71.10;;;;;;2347702;53;20973;-70
2023/07/31 01:29:47;;;;;;;2.08;0.75;;;19.30;70.30;;;;;;2344648;54;20919;-71
2023/07/31 01:32:13;;;;;;;2.62;0.75;;;19.30;71.10;;;;;;2592657;53;20920;-72
2023/07/31 01:34:40;;;;;;;2.20;0.77;;;19.30;71.70;;;;;;2344878;54;20887;-73
2023/07/31 01:37:06;;;;;;;2.08;0.90;;;19.30;71.80;;;;;;2592178;53;20948;-72
2023/07/31 01:39:32;;;;;;;4.03;0.90;;;19.20;71.70;;;;;;2591764;53;21004;-72
2023/07/31 01:41:59;;;;;;;2.03;0.90;;;19.20;72.50;;;;;;2593097;53;20992;-71
2023/07/31 01:44:25;;;;;;;5.50;1.00;;;19.20;71.80;;;;;;2592079;52;21016;-71
2023/07/31 01:46:55;;;;;;;3.87;1.37;;;19.20;71.80;;;;;;2592408;52;20920;-74
2023/07/31 01:49:22;;;;;;;3.40;1.20;;;19.20;71.80;;;;;;2345874;54;20937;-71
2023/07/31 01:51:50;;;;;;;1.83;0.62;;;19.20;71.90;;;;;;2593577;53;20928;-74
2023/07/31 01:54:19;;;;;;;2.75;0.98;;;19.20;71.90;;;;;;2345996;54;20928;-73
2023/07/31 01:56:46;;;;;;;3.15;1.02;;;19.20;71.80;;;;;;2591042;53;20936;-73
2023/07/31 01:59:13;;;;;;;2.25;0.80;;;19.20;72.00;;;;;;2345762;54;20900;-71
2023/07/31 02:01:39;;;;;;;1.55;0.80;;;19.20;71.90;;;;;;2346025;53;21726;-72
2023/07/31 02:04:06;;;;;;;3.62;1.10;;;19.20;71.90;;;;;;2591728;53;20989;-72
2023/07/31 02:06:35;;;;;;;1.98;0.90;;;19.20;72.00;;;;;;2592024;53;20972;-74
2023/07/31 02:09:03;;;;;;;4.85;1.10;;;19.20;71.80;;;;;;2592347;53;21035;-71
2023/07/31 02:11:29;;;;;;;3.45;1.30;;;19.20;72.00;;;;;;2592933;53;21661;-71
2023/07/31 02:13:56;;;;;;;2.00;1.00;;;19.20;72.10;;;;;;2593116;53;21462;-72
2023/07/31 02:16:22;;;;;;;2.70;0.90;;;19.20;72.10;;;;;;2346259;54;20985;-72
2023/07/31 02:18:48;;;;;;;3.47;1.10;;;19.20;72.10;;;;;;2592469;53;21033;-72
2023/07/31 02:21:16;;;;;;;2.78;1.20;;;19.20;72.10;;;;;;2592964;53;20929;-72
2023/07/31 02:23:43;;;;;;;1.80;0.85;;;19.20;72.20;;;;;;2592269;53;21008;-71
2023/07/31 02:26:10;;;;;;;3.53;1.10;;;19.20;72.20;;;;;;2589848;52;20933;-71
2023/07/31 02:28:37;;;;;;;2.62;0.98;;;19.20;72.20;;;;;;2346172;54;20947;-69
2023/07/31 02:31:03;;;;;;;2.12;1.00;;;19.20;72.20;;;;;;2591201;53;21741;-72
2023/07/31 02:33:32;;;;;;;3.35;1.27;;;19.20;72.20;;;;;;2592629;52;21851;-71
2023/07/31 02:35:59;;;;;;;2.70;1.00;;;19.30;72.10;;;;;;2591667;52;20920;-71
2023/07/31 02:38:25;;;;;;;2.72;0.90;;;19.30;72.30;;;;;;2592994;53;20944;-72
2023/07/31 02:40:52;;;;;;;2.15;1.02;;;19.30;72.30;;;;;;2592676;53;20908;-73
2023/07/31 02:43:24;;;;;;;2.58;1.33;;;19.30;72.40;;;;;;2593047;53;21113;-71
2023/07/31 02:45:53;;;;;;;2.00;0.80;;;19.30;72.20;;;;;;2592156;53;20998;-72
2023/07/31 02:48:19;;;;;;;4.82;1.17;;;19.20;72.10;;;;;;2593329;53;22275;-72
2023/07/31 02:50:50;;;;;;;2.97;1.20;;;19.30;72.40;;;;;;2591649;53;20999;-71
2023/07/31 02:53:16;;;;;;;3.10;1.05;;;19.30;72.50;;;;;;2592948;53;21694;-72
2023/07/31 02:55:45;;;;;;;2.20;1.10;;;19.30;72.60;;;;;;2591726;53;20920;-72
2023/07/31 02:58:11;;;;;;;2.40;1.20;;;19.30;72.40;;;;;;2592928;53;21448;-71
2023/07/31 03:00:45;;;;;;;3.67;1.33;;;19.30;72.70;;;;;;2592564;53;21000;-71
2023/07/31 03:03:11;;;;;;;2.05;0.90;;;19.40;72.50;;;;;;2346848;54;20916;-71
2023/07/31 03:05:39;;;;;;;2.28;0.93;;;19.40;73.50;;;;;;2592399;53;20944;-71
2023/07/31 03:08:06;;;;;;;2.03;1.00;;;19.40;72.80;;;;;;2592819;53;20944;-73
2023/07/31 03:10:32;;;;;;;4.25;1.30;;;19.40;72.70;;;;;;2592149;53;21397;-70
2023/07/31 03:12:59;;;;;;;2.47;1.08;;;19.50;72.80;;;;;;2593559;53;21780;-73
2023/07/31 03:15:25;;;;;;;3.60;1.12;;;19.40;72.70;;;;;;2592108;52;20956;-72
2023/07/31 03:17:52;;;;;;;3.53;1.10;;;19.50;72.90;;;;;;2591108;53;21090;-71
2023/07/31 03:20:20;;;;;;;2.55;1.05;;;19.50;72.90;;;;;;2591212;52;20956;-72
2023/07/31 03:22:49;;;;;;;3.25;1.50;;;19.50;72.90;;;;;;2591521;53;20964;-71
2023/07/31 03:25:15;;;;;;;2.62;1.05;;;19.50;72.80;;;;;;2345626;54;20908;-71
2023/07/31 03:27:41;;;;;;;3.28;1.30;;;19.50;72.80;;;;;;2345164;54;21793;-73
2023/07/31 03:30:08;;;;;;;3.37;1.25;;;19.60;72.80;;;;;;2345328;54;21369;-71
2023/07/31 03:32:44;;;;;;;3.22;1.30;;;19.60;72.80;;;;;;2591902;53;21003;-70
2023/07/31 03:35:11;;;;;;;3.95;1.00;;;19.60;72.80;;;;;;2592952;53;20932;-72
2023/07/31 03:37:38;;;;;;;3.08;1.12;;;19.60;72.80;;;;;;2592703;53;21109;-71
2023/07/31 03:40:05;;;;;;;2.80;1.20;;;19.60;72.70;;;;;;2592838;53;20913;-73
2023/07/31 03:42:31;;;;;;;3.67;1.30;;;19.60;73.40;;;;;;2346342;54;21487;-73
2023/07/31 03:44:58;;;;;;;2.80;1.08;;;19.60;72.70;;;;;;2590149;52;21414;-71
2023/07/31 03:47:27;;;;;;;3.95;1.35;;;19.60;72.60;;;;;;2593475;53;20900;-72
2023/07/31 03:49:54;;;;;;;4.30;1.20;;;19.70;72.60;;;;;;2348379;54;20972;-72
2023/07/31 03:52:20;;;;;;;2.37;1.00;;;19.60;72.60;;;;;;2592158;52;20976;-71
2023/07/31 03:54:47;;;;;;;2.42;1.17;;;19.70;72.70;;;;;;2592485;53;20952;-71
2023/07/31 03:57:13;;;;;;;3.05;1.20;;;19.70;72.70;;;;;;2345491;54;21433;-73
2023/07/31 03:59:39;;;;;;;3.35;1.30;;;19.70;72.60;;;;;;2591995;53;20940;-71
2023/07/31 04:02:07;;;;;;;8.90;1.20;;;19.70;72.60;;;;;;2552746;53;2251396;-73
2023/07/31 04:04:33;;;;;;;2.75;1.15;;;19.70;72.60;;;;;;2346643;53;21902;-71
2023/07/31 04:07:07;;;;;;;3.22;1.12;;;19.80;72.80;;;;;;2592946;53;20928;-73
2023/07/31 04:09:33;;;;;;;2.55;1.00;;;19.80;72.80;;;;;;2593236;53;20941;-72
2023/07/31 04:11:59;;;;;;;2.90;1.10;;;19.80;72.80;;;;;;2591987;52;20972;-72
2023/07/31 04:14:27;;;;;;;3.22;1.17;;;19.80;72.70;;;;;;2592439;52;20987;-72
2023/07/31 04:16:54;;;;;;;3.92;1.30;;;19.80;72.70;;;;;;2346093;54;20912;-72
2023/07/31 04:19:20;;;;;;;2.08;1.00;;;19.80;72.60;;;;;;2592656;53;21051;-73
2023/07/31 04:21:47;;;;;;;2.72;1.17;;;19.80;72.60;;;;;;2345586;54;21024;-72
2023/07/31 04:24:14;;;;;;;3.17;1.08;;;19.80;72.70;;;;;;2345929;54;20897;-73
2023/07/31 04:26:42;;;;;;;2.92;1.30;;;19.90;72.70;;;;;;2592893;53;20964;-71
2023/07/31 04:29:08;;;;;;;3.20;1.00;;;19.90;72.70;;;;;;2346464;54;20956;-72
2023/07/31 04:31:36;;;;;;;4.40;1.27;;;19.90;72.70;;;;;;2593652;53;21051;-75
2023/07/31 04:34:11;;;;;;;3.97;1.33;;;19.90;72.70;;;;;;2592655;53;21918;-75
2023/07/31 04:36:37;;;;;;;4.32;1.33;;;19.90;72.70;;;;;;2591155;53;21035;-72
2023/07/31 04:39:05;;;;;;;3.15;1.27;;;19.90;72.60;;;;;;2346770;54;20960;-71
2023/07/31 04:41:32;;;;;;;3.12;1.20;;;19.90;72.60;;;;;;2592768;53;20953;-72
2023/07/31 04:43:58;;;;;;;2.87;0.95;;;19.90;72.70;;;;;;2591512;53;21080;-72
2023/07/31 04:46:24;;;;;;;2.50;1.00;;;19.90;72.70;;;;;;2593038;53;21005;-73
2023/07/31 04:48:51;;;;;;;3.03;1.05;;;20.00;72.80;;;;;;2592300;53;21882;-72
2023/07/31 04:51:17;;;;;;;3.58;1.17;;;20.00;72.80;;;;;;2592664;53;21774;-71
2023/07/31 04:53:47;;;;;;;3.72;1.30;;;20.00;72.70;;;;;;2592339;53;21002;-73
2023/07/31 04:56:15;;;;;;;2.12;1.10;;;20.00;72.30;;;;;;2346221;54;21061;-71
2023/07/31 04:58:42;;;;;;;3.90;1.17;;;19.80;72.40;;;;;;2593173;53;20980;-69
2023/07/31 05:01:08;;;;;;;3.35;1.23;;;20.00;72.60;;;;;;2326047;55;21000;-73
2023/07/31 05:03:35;;;;;;;2.55;1.05;;;20.00;72.60;;;;;;2592861;53;20928;-71
2023/07/31 05:06:02;;;;;;;4.93;1.20;;;20.10;72.70;;;;;;2592435;52;21861;-71
2023/07/31 05:08:29;;;;;;;3.25;1.20;;;20.10;72.70;;;;;;2593034;53;20975;-71
2023/07/31 05:10:59;;;;;;;4.30;1.10;;;20.10;72.70;;;;;;2592792;53;21012;-73
2023/07/31 05:13:25;;;;;;;4.70;1.25;;;20.10;72.70;;;;;;2593037;53;20937;-71
2023/07/31 05:15:51;;;;;;;3.45;1.35;;;20.10;72.60;;;;;;2592859;53;21369;-72
2023/07/31 05:18:18;;;;;;;3.92;1.30;;;20.00;72.30;;;;;;2591125;53;20931;-71
2023/07/31 05:20:44;;;;;;;2.75;1.30;;;20.20;72.60;;;;;;2592698;53;21433;-69
2023/07/31 05:23:26;;;;;;;3.40;1.40;;;20.20;72.60;;;;;;2593727;53;21464;-72
2023/07/31 05:25:52;;;;;;;2.58;0.90;;;20.20;71.40;;;;;;2593016;53;20992;-73
2023/07/31 05:28:18;;;;;;;4.82;1.20;;;20.20;72.50;;;;;;2593758;53;20952;-72
2023/07/31 05:30:45;;;;;;;4.12;1.48;;;20.20;72.50;;;;;;2593144;53;20908;-71
2023/07/31 05:33:11;;;;;;;3.25;1.30;;;20.20;72.40;;;;;;2592898;53;20921;-73
2023/07/31 05:35:38;;;;;;;3.50;1.05;;;20.20;72.40;;;;;;2592962;53;20948;-72
2023/07/31 05:38:05;;;;;;;2.55;1.20;;;20.30;72.60;;;;;;2346886;54;21832;-73
2023/07/31 05:40:35;;;;;;;2.42;0.93;;;20.30;72.60;;;;;;2591768;53;20936;-72
2023/07/31 05:43:02;;;;;;;2.17;1.10;;;20.30;72.20;;;;;;2346421;53;20984;-72
2023/07/31 05:45:28;;;;;;;3.17;1.05;;;20.30;72.40;;;;;;2592860;52;20956;-72
2023/07/31 05:47:54;;;;;;;3.22;1.25;;;20.40;72.50;;;;;;2589401;52;20992;-72
2023/07/31 05:50:21;;;;;;;2.75;1.30;;;20.40;72.40;;;;;;2593200;53;21397;-72
2023/07/31 05:52:48;;;;;;;4.15;1.40;;;20.40;72.40;;;;;;2593046;53;20924;-69
2023/07/31 05:55:14;;;;;;;3.28;1.00;;;20.40;72.50;;;;;;2592617;53;21389;-72
2023/07/31 05:57:40;;;;;;;4.57;1.25;;;20.50;72.60;;;;;;2593027;53;20975;-73
2023/07/31 06:00:10;;;;;;;3.70;1.20;;;20.50;72.50;;;;;;2592567;53;22215;-73
2023/07/31 06:02:37;;;;;;;3.80;1.35;;;20.50;72.50;;;;;;2345712;54;20936;-71
2023/07/31 06:05:05;;;;;;;2.62;1.10;;;20.50;72.40;;;;;;2592716;53;20941;-74
2023/07/31 06:07:32;;;;;;;3.60;1.23;;;20.50;72.40;;;;;;2593174;53;20897;-73
2023/07/31 06:10:04;;;;;;;2.40;1.08;;;20.60;72.40;;;;;;2592926;53;21763;-73
2023/07/31 06:12:34;;;;;;;;;;;20.60;72.40;;;;;;2597619;53;21016;-73
2023/07/31 06:15:00;;;;;;;3.83;0.95;;;20.70;70.90;;;;;;2593137;52;20074;-73
2023/07/31 06:17:28;;;;;;;2.90;1.12;;;20.70;72.50;;;;;;2591413;52;20952;-72
2023/07/31 06:19:54;;;;;;;2.40;1.10;;;20.70;72.40;;;;;;2592925;53;20957;-74
2023/07/31 06:22:20;;;;;;;3.60;1.20;;;20.70;72.50;;;;;;2347353;54;20914;-73
2023/07/31 06:24:47;;;;;;;3.92;1.17;;;20.70;72.50;;;;;;2591568;52;20960;-74
2023/07/31 06:27:13;;;;;;;2.90;1.40;;;20.80;72.70;;;;;;2591738;52;21586;-72
2023/07/31 06:29:41;;;;;;;4.07;1.83;;;20.80;72.70;;;;;;2591432;52;21090;-74
2023/07/31 06:32:07;;;;;;;2.87;1.40;;;20.80;72.70;;;;;;2591763;53;20956;-72
2023/07/31 06:34:35;;;;;;;6.47;2.20;;;20.90;72.70;;;;;;2592836;53;20999;-72
2023/07/31 06:37:01;;;;;;;3.50;1.10;;;20.90;72.60;;;;;;2593004;53;21028;-71
2023/07/31 06:39:28;;;;;;;3.05;1.10;;;20.90;72.70;;;;;;2592430;53;21012;-71
2023/07/31 06:41:55;;;;;;;5.30;1.20;;;21.00;72.60;;;;;;2592312;53;20944;-72
2023/07/31 06:44:24;;;;;;;4.25;1.10;;;21.00;72.50;;;;;;2345671;54;20928;-75
2023/07/31 06:46:52;;;;;;;3.37;1.30;;;21.00;72.50;;;;;;2346127;54;20964;-71
2023/07/31 06:49:18;;;;;;;3.65;1.55;;;21.10;72.60;;;;;;2591676;52;20953;-73
2023/07/31 06:51:46;;;;;;;2.85;1.23;;;21.10;72.60;;;;;;2591423;52;20944;-75
2023/07/31 06:54:15;;;;;;;3.03;1.17;;;21.20;72.80;;;;;;2578249;53;21627;-73
2023/07/31 06:56:41;;;;;;;3.15;1.10;;;21.20;72.70;;;;;;2592330;53;20972;-72
2023/07/31 06:59:08;;;;;;;3.17;1.33;;;21.30;72.80;;;;;;2590376;53;22041;-73
2023/07/31 07:01:34;;;;;;;3.55;1.30;;;21.30;72.70;;;;;;2349049;54;21420;-73
2023/07/31 07:04:01;;;;;;;2.65;1.10;;;21.30;72.60;;;;;;2590777;52;20983;-72
2023/07/31 07:06:27;;;;;;;4.03;1.33;;;21.40;72.60;;;;;;2591783;52;20896;-74
2023/07/31 07:08:55;;;;;;;4.45;1.27;;;21.40;72.50;;;;;;2346407;53;20894;-69
2023/07/31 07:11:22;;;;;;;4.32;1.30;;;21.50;72.30;;;;;;2346136;54;21681;-71
2023/07/31 07:13:49;;;;;;;3.53;1.45;;;21.50;72.20;;;;;;2591514;52;21037;-71
2023/07/31 07:16:15;;;;;;;4.35;1.70;;;21.60;72.20;;;;;;2343874;53;21038;-74
2023/07/31 07:18:43;;;;;;;7.12;1.50;;;21.60;72.20;;;;;;2593146;53;21062;-72
2023/07/31 07:21:17;;;;;;;4.32;1.40;;;21.60;72.20;;;;;;2592851;53;20979;-73
2023/07/31 07:23:46;;;;;;;5.07;1.52;;;21.70;72.30;;;;;;2592955;53;21019;-73
2023/07/31 07:26:12;;;;;;;3.90;1.35;;;21.70;72.40;;;;;;2592206;53;20928;-72
2023/07/31 07:28:39;;;;;;;3.00;1.23;;;21.80;72.40;;;;;;2349167;53;21024;-72
2023/07/31 07:31:05;;;;;;;3.28;1.65;;;21.80;72.40;;;;;;2592670;53;20933;-73
2023/07/31 07:33:33;;;;;;;3.95;1.33;;;21.80;72.30;;;;;;2345984;54;21799;-72
2023/07/31 07:36:01;;;;;;;3.35;1.37;;;21.90;72.40;;;;;;2348553;54;21710;-72
2023/07/31 07:38:30;;;;;;;4.03;1.45;;;21.90;72.30;;;;;;2591407;52;21001;-71
2023/07/31 07:40:58;;;;;;;3.10;1.35;;;22.00;72.40;;;;;;2346242;54;20972;-71
2023/07/31 07:43:25;;;;;;;3.25;1.45;;;22.10;72.40;;;;;;2593029;53;20953;-72
2023/07/31 07:45:56;;;;;;;4.40;1.40;;;22.10;72.30;;;;;;2345100;54;20952;-72
2023/07/31 07:48:22;;;;;;;5.28;1.48;;;22.20;72.40;;;;;;2592787;53;21507;-70
2023/07/31 07:50:49;;;;;;;3.47;1.12;;;22.30;72.50;;;;;;2346397;54;21038;-71
2023/07/31 07:53:17;;;;;;;3.78;1.45;;;22.30;72.40;;;;;;2593047;53;20976;-71
2023/07/31 07:55:47;;;;;;;3.40;1.35;;;22.40;72.20;;;;;;2593543;53;20972;-74
2023/07/31 07:58:13;;;;;;;4.05;1.50;;;22.40;72.20;;;;;;2593260;53;20940;-74
2023/07/31 08:00:39;;;;;;;5.37;1.58;;;22.50;72.30;;;;;;2593314;53;20988;-70
2023/07/31 08:03:06;;;;;;;3.30;1.33;;;22.50;72.20;;;;;;2592386;53;21492;-72
2023/07/31 08:05:34;;;;;;;3.53;1.33;;;22.60;72.30;;;;;;2348722;53;20987;-70
2023/07/31 08:08:00;;;;;;;3.25;1.30;;;22.60;72.10;;;;;;2592696;52;21023;-68
2023/07/31 08:10:26;;;;;;;3.17;1.48;;;22.70;72.10;;;;;;2589726;52;20993;-70
2023/07/31 08:12:55;;;;;;;4.87;1.92;;;22.80;72.00;;;;;;2593323;53;20960;-70
2023/07/31 08:15:22;;;;;;;2.92;1.30;;;22.80;71.90;;;;;;2593308;53;20957;-69
2023/07/31 08:17:50;;;;;;;3.08;1.23;;;22.90;72.10;;;;;;2593763;53;21757;-69
2023/07/31 08:20:16;;;;;;;3.45;1.48;;;22.90;72.10;;;;;;2565286;53;20951;-69
2023/07/31 08:22:45;;;;;;;4.72;1.50;;;23.00;72.10;;;;;;2592725;53;21060;-72
2023/07/31 08:25:11;;;;;;;4.18;1.40;;;23.10;71.90;;;;;;2345754;54;20900;-72
2023/07/31 08:27:37;;;;;;;4.35;1.20;;;23.10;71.60;;;;;;2350233;54;21118;-70
2023/07/31 08:30:04;;;;;;;3.35;1.62;;;23.20;71.40;;;;;;2588408;52;20944;-73
2023/07/31 08:32:31;;;;;;;2.58;1.37;;;23.20;71.20;;;;;;2592246;53;21426;-71
2023/07/31 08:34:59;;;;;;;3.90;1.60;;;23.20;70.90;;;;;;2346452;54;20944;-69
2023/07/31 08:37:25;;;;;;;3.10;1.48;;;23.30;70.70;;;;;;2346134;54;20949;-70
2023/07/31 08:39:54;;;;;;;3.53;1.70;;;23.30;70.70;;;;;;2593309;53;20980;-71
2023/07/31 08:42:21;;;;;;;3.78;1.52;;;23.30;70.60;;;;;;2592307;53;21448;-69
2023/07/31 08:44:47;;;;;;;2.97;1.20;;;23.40;70.70;;;;;;2592752;53;21714;-72
2023/07/31 08:47:13;;;;;;;3.25;1.20;;;23.40;70.80;;;;;;2343801;54;21011;-70
2023/07/31 08:49:41;;;;;;;4.32;1.30;;;23.40;70.80;;;;;;2593079;53;20925;-69
2023/07/31 08:52:07;;;;;;;3.37;1.20;;;23.50;70.80;;;;;;2592989;53;21043;-73
2023/07/31 08:54:34;;;;;;;5.15;1.30;;;23.50;70.60;;;;;;2591955;52;21082;-71
2023/07/31 08:57:00;;;;;;;4.05;1.70;;;23.50;70.70;;;;;;2346383;54;20942;-71
2023/07/31 08:59:30;;;;;;;3.60;1.37;;;23.50;70.70;;;;;;2345672;54;21005;-69
2023/07/31 09:01:57;;;;;;;2.58;1.23;;;23.60;70.10;;;;;;2593014;53;21381;-71
2023/07/31 09:04:24;;;;;;;3.40;1.33;;;23.60;70.50;;;;;;2589786;52;22006;-69
2023/07/31 09:06:51;;;;;;;4.20;1.20;;;23.60;70.50;;;;;;2590951;52;20953;-69
2023/07/31 09:09:20;;;;;;;2.85;1.20;;;23.60;70.50;;;;;;2591712;53;21051;-71
2023/07/31 09:11:46;;;;;;;5.00;1.70;;;23.70;70.70;;;;;;2593022;53;21020;-71
2023/07/31 09:14:13;;;;;;;3.83;1.35;;;23.70;70.70;;;;;;2592660;53;21832;-69
2023/07/31 09:16:52;;;;;;;3.87;1.42;;;23.70;70.80;;;;;;2345493;54;20955;-71
2023/07/31 09:19:38;;;;;;;4.28;1.77;;;23.80;69.20;;;;;;2345648;54;20980;-71
2023/07/31 09:22:07;;;;;;;4.40;1.40;;;23.80;69.40;;;;;;2592504;53;20996;-68
2023/07/31 09:24:34;;;;;;;3.62;1.40;;;23.90;70.60;;;;;;2592321;53;20941;-68
2023/07/31 09:27:00;;;;;;;3.37;1.30;;;23.90;70.90;;;;;;2592495;53;21477;-69
2023/07/31 09:29:28;;;;;;;4.37;1.55;;;24.00;71.00;;;;;;2347781;54;21654;-69
2023/07/31 09:31:54;;;;;;;4.18;1.65;;;24.00;70.70;;;;;;2345331;54;21390;-69
2023/07/31 09:34:28;;;;;;;3.37;1.33;;;24.10;70.60;;;;;;2592129;53;20971;-68
2023/07/31 09:36:54;;;;;;;3.62;1.27;;;24.10;70.60;;;;;;2324851;55;20984;-70
2023/07/31 09:39:22;;;;;;;3.20;1.50;;;24.20;70.70;;;;;;2348623;54;20972;-70
2023/07/31 09:41:54;;;;;;;4.53;1.58;;;24.20;70.40;;;;;;2592200;53;21103;-69
2023/07/31 09:44:26;;;;;;;;;;;24.30;69.20;;;;;;2348411;54;20923;-68
2023/07/31 09:46:53;;;;;;;3.00;1.15;;;24.40;68.10;;;;;;2593010;53;20382;-69
2023/07/31 09:49:29;;;;;;;3.50;1.40;;;24.40;70.50;;;;;;2591827;53;20904;-70
2023/07/31 09:51:57;;;;;;;4.22;1.58;;;24.40;68.90;;;;;;2593017;53;20996;-69
2023/07/31 09:54:23;;;;;;;3.20;1.58;;;24.50;70.30;;;;;;2350535;54;21029;-69
2023/07/31 09:56:49;;;;;;;3.90;1.40;;;24.50;70.10;;;;;;2589766;52;20983;-69
2023/07/31 09:59:16;;;;;;;3.15;1.33;;;24.50;70.00;;;;;;2345588;54;21761;-69
2023/07/31 10:01:44;;;;;;;4.00;1.70;;;24.60;70.10;;;;;;2592183;53;20928;-69
2023/07/31 10:04:10;;;;;;;3.95;1.48;;;24.60;70.10;;;;;;2592101;53;20961;-68
2023/07/31 10:06:37;;;;;;;3.92;1.40;;;24.60;69.80;;;;;;2592573;52;21028;-70
2023/07/31 10:09:05;;;;;;;2.95;1.33;;;24.70;70.00;;;;;;2346047;54;20936;-69
2023/07/31 10:11:36;;;;;;;3.70;1.50;;;24.80;69.80;;;;;;2345591;54;20916;-69
2023/07/31 10:14:02;;;;;;;3.30;1.35;;;24.80;69.70;;;;;;2593055;53;21016;-69
2023/07/31 10:16:29;;;;;;;4.22;1.35;;;24.80;69.80;;;;;;2592915;53;20971;-68
2023/07/31 10:18:55;;;;;;;3.55;1.52;;;24.80;69.80;;;;;;2346290;54;20982;-69
2023/07/31 10:21:25;;;;;;;4.07;1.60;;;24.90;69.80;;;;;;2590032;52;20981;-68
2023/07/31 10:23:51;;;;;;;3.25;1.40;;;25.00;69.20;;;;;;2591196;53;20924;-70
2023/07/31 10:26:18;;;;;;;3.55;1.70;;;25.00;69.50;;;;;;2591578;52;20992;-67
2023/07/31 10:28:44;;;;;;;3.20;1.20;;;25.00;69.40;;;;;;2592928;53;20999;-69
2023/07/31 10:31:11;;;;;;;4.03;1.52;;;25.10;69.60;;;;;;2592581;53;21698;-66
2023/07/31 10:33:37;;;;;;;5.07;1.77;;;25.10;69.40;;;;;;2591814;53;20952;-69
2023/07/31 10:36:14;;;;;;;3.50;1.40;;;25.20;69.20;;;;;;2346238;54;20944;-67
2023/07/31 10:38:41;;;;;;;4.87;1.50;;;25.20;67.10;;;;;;2350178;54;21004;-68
2023/07/31 10:41:09;;;;;;;4.65;1.52;;;25.20;68.70;;;;;;2588561;52;20949;-68
2023/07/31 10:43:36;;;;;;;5.32;1.70;;;25.30;68.80;;;;;;2565352;53;21130;-69
2023/07/31 10:46:09;;;;;;;4.60;1.60;;;25.30;68.60;;;;;;2593538;53;21866;-69
2023/07/31 10:48:36;;;;;;;3.80;1.60;;;25.30;67.90;;;;;;2593387;53;21401;-70
2023/07/31 10:51:10;;;;;;;3.35;1.30;;;25.30;68.40;;;;;;2593141;53;21132;-68
2023/07/31 10:53:40;;;;;;;5.03;1.50;;;25.30;67.80;;;;;;2589920;52;20977;-69
2023/07/31 10:56:10;;;;;;;3.85;1.42;;;25.30;67.70;;;;;;2591906;52;20980;-70
2023/07/31 10:58:37;;;;;;;4.37;1.77;;;25.40;67.70;;;;;;2592707;53;21024;-68
2023/07/31 11:01:04;;;;;;;3.80;1.50;;;25.40;68.20;;;;;;2593188;53;21008;-69
2023/07/31 11:03:51;;;;;;;3.20;1.52;;;25.40;68.60;;;;;;2345729;54;20956;-69
2023/07/31 11:06:18;;;;;;;4.25;1.48;;;25.40;66.70;;;;;;2345356;54;20959;-69
2023/07/31 11:08:45;;;;;;;4.25;1.70;;;25.40;68.10;;;;;;2592500;52;21397;-68
2023/07/31 11:11:13;;;;;;;3.83;1.55;;;25.40;68.00;;;;;;2346314;54;20983;-70
2023/07/31 11:13:53;;;;;;;4.05;1.62;;;25.40;68.00;;;;;;2346454;54;20912;-71
2023/07/31 11:16:24;;;;;;;4.40;1.90;;;25.40;66.70;;;;;;2593112;53;20968;-70
2023/07/31 11:18:51;;;;;;;5.03;1.77;;;25.40;68.00;;;;;;2346472;54;21441;-69
2023/07/31 11:21:21;;;;;;;4.10;1.60;;;25.40;67.90;;;;;;2349396;54;20916;-68
2023/07/31 11:23:53;;;;;;;4.95;2.00;;;25.40;67.80;;;;;;2592847;53;20976;-68
2023/07/31 11:26:19;;;;;;;3.72;1.52;;;25.40;67.10;;;;;;2593382;53;20999;-70
2023/07/31 11:28:49;;;;;;;3.17;1.50;;;25.40;67.80;;;;;;2593688;53;21369;-68
2023/07/31 11:31:17;;;;;;;3.78;1.50;;;25.40;67.40;;;;;;2593183;53;20897;-69
2023/07/31 11:33:44;;;;;;;3.95;1.62;;;25.40;68.10;;;;;;2592874;53;21024;-69
2023/07/31 11:36:19;;;;;;;4.93;1.30;;;25.50;68.30;;;;;;2591928;52;21861;-69
2023/07/31 11:38:46;;;;;;;4.45;1.60;;;25.50;67.10;;;;;;2593162;53;21004;-68
2023/07/31 11:41:28;;;;;;;3.42;1.40;;;25.50;67.90;;;;;;2592830;53;20956;-68
2023/07/31 11:44:00;;;;;;;3.67;1.40;;;25.50;67.80;;;;;;2345273;54;20904;-69
2023/07/31 11:46:30;;;;;;;4.10;1.77;;;25.50;67.30;;;;;;2592345;53;20947;-69
2023/07/31 11:49:00;;;;;;;3.30;1.40;;;25.50;68.00;;;;;;2592833;53;20905;-69
2023/07/31 11:51:27;;;;;;;4.37;1.67;;;25.50;67.20;;;;;;2591648;52;20925;-68
2023/07/31 11:53:59;;;;;;;5.05;1.98;;;25.50;67.50;;;;;;2346207;54;21460;-69
2023/07/31 11:56:26;;;;;;;5.90;1.50;;;25.50;67.30;;;;;;2592443;53;21012;-69
2023/07/31 11:58:59;;;;;;;3.42;1.55;;;25.50;67.70;;;;;;2593079;53;20927;-70
2023/07/31 12:01:25;;;;;;;5.10;1.55;;;25.50;66.80;;;;;;2592558;53;21004;-69
2023/07/31 12:03:51;;;;;;;5.43;1.60;;;25.50;67.90;;;;;;2345968;54;20968;-68
2023/07/31 12:06:20;;;;;;;3.85;1.42;;;25.50;67.80;;;;;;2593002;53;20956;-69
2023/07/31 12:08:47;;;;;;;3.90;1.70;;;25.50;68.60;;;;;;2346481;54;20944;-69
2023/07/31 12:11:14;;;;;;;4.45;1.42;;;25.60;68.00;;;;;;2346302;54;20989;-70
2023/07/31 12:13:41;;;;;;;3.08;1.40;;;25.60;68.20;;;;;;2592377;53;21467;-69
2023/07/31 12:16:10;;;;;;;3.10;1.50;;;25.60;68.10;;;;;;2592703;53;20928;-69
2023/07/31 12:18:41;;;;;;;4.93;1.45;;;25.70;67.90;;;;;;2593141;53;21007;-70
2023/07/31 12:21:08;;;;;;;4.50;1.70;;;25.70;68.10;;;;;;2346988;54;21733;-69
2023/07/31 12:23:35;;;;;;;3.55;1.42;;;25.70;68.40;;;;;;2593129;53;20932;-68
2023/07/31 12:26:15;;;;;;;3.03;1.30;;;25.70;68.40;;;;;;2593276;53;20901;-70
2023/07/31 12:28:48;;;;;;;3.50;1.73;;;25.80;67.30;;;;;;2592068;53;20972;-69
2023/07/31 12:31:19;;;;;;;4.37;1.40;;;25.80;68.00;;;;;;2593145;53;20952;-70
2023/07/31 12:33:46;;;;;;;2.58;1.27;;;25.90;68.40;;;;;;2345198;54;21564;-69
2023/07/31 12:36:17;;;;;;;3.47;1.30;;;25.90;68.40;;;;;;2346311;54;21475;-69
2023/07/31 12:38:58;;;;;;;2.92;1.40;;;26.00;67.80;;;;;;2591814;53;21000;-70
2023/07/31 12:41:24;;;;;;;3.53;1.58;;;26.00;66.90;;;;;;2592717;53;20925;-68
2023/07/31 12:43:51;;;;;;;3.58;1.50;;;26.00;68.20;;;;;;2592810;53;21092;-70
2023/07/31 12:46:18;;;;;;;3.55;1.45;;;26.00;68.20;;;;;;2591274;52;20916;-68
2023/07/31 12:48:44;;;;;;;3.20;1.52;;;26.00;68.00;;;;;;2591993;52;21027;-69
2023/07/31 12:51:11;;;;;;;4.72;1.60;;;26.00;68.10;;;;;;2591777;52;20951;-69
2023/07/31 12:53:37;;;;;;;3.20;1.50;;;26.10;68.20;;;;;;2347910;53;21044;-68
2023/07/31 12:56:04;;;;;;;3.65;1.58;;;26.10;68.20;;;;;;2345504;53;20972;-69